Time;durP1;ratioP1;P1;durP2;ratioP2;P2;SDS_P1;SDS_P2;PMS_P1;PMS_P2;Temp;Humidity;BMP_temperature;BMP_pressure;BME280_temperature;BME280_humidity;BME280_pressure;Samples;Min_cycle;Max_cycle;Signal;HPM_P1;HPM_P2
2022/03/07 00:01:33;;;;;;;11.30;7.63;;;;;;;-3.69;100.00;96988.91;4996623;28;20511;-74
2022/03/07 00:04:02;;;;;;;6.83;6.13;;;;;;;-3.67;100.00;96975.78;4982075;28;20493;-74
2022/03/07 00:06:29;;;;;;;13.60;10.40;;;;;;;-3.61;100.00;96996.34;4995782;28;20455;-73
2022/03/07 00:08:58;;;;;;;9.77;7.07;;;;;;;-3.85;100.00;96953.38;4995986;28;20445;-73
2022/03/07 00:11:25;;;;;;;7.80;7.10;;;;;;;-3.70;100.00;96989.91;4995834;28;20547;-73
2022/03/07 00:13:52;;;;;;;10.40;9.30;;;;;;;-3.78;100.00;96990.22;4995675;28;20461;-73
2022/03/07 00:16:18;;;;;;;9.13;7.23;;;;;;;-3.89;100.00;96985.78;5012063;28;20444;-73
2022/03/07 00:18:46;;;;;;;10.57;8.17;;;;;;;-3.78;100.00;96997.16;5012143;28;20800;-74
2022/03/07 00:21:13;;;;;;;12.50;7.17;;;;;;;-3.84;100.00;96985.16;4996949;28;20947;-74
2022/03/07 00:23:40;;;;;;;12.87;7.60;;;;;;;-3.89;100.00;96988.34;4996515;28;20457;-73
2022/03/07 00:26:09;;;;;;;8.70;7.93;;;;;;;-4.08;100.00;96961.00;4996302;28;20467;-73
2022/03/07 00:28:36;;;;;;;9.40;7.70;;;;;;;-4.04;100.00;96962.13;5011750;28;20436;-73
2022/03/07 00:31:08;;;;;;;9.20;8.10;;;;;;;-3.75;100.00;96991.56;5010953;28;20464;-73
2022/03/07 00:33:35;;;;;;;11.93;6.97;;;;;;;-3.93;100.00;96975.09;4978279;28;20511;-73
2022/03/07 00:36:03;;;;;;;9.17;8.27;;;;;;;-3.99;100.00;96967.44;4994827;28;20455;-74
2022/03/07 00:38:30;;;;;;;8.53;7.57;;;;;;;-3.90;100.00;96986.78;4994321;28;20443;-74
2022/03/07 00:40:58;;;;;;;8.47;7.47;;;;;;;-3.87;100.00;96994.13;5010200;28;20452;-74
2022/03/07 00:43:26;;;;;;;11.57;7.87;;;;;;;-3.90;100.00;96992.75;5009949;28;20456;-74
2022/03/07 00:45:53;;;;;;;7.47;6.57;;;;;;;-3.95;100.00;96984.06;4977988;28;20444;-74
2022/03/07 00:48:20;;;;;;;7.57;6.53;;;;;;;-3.88;100.00;96989.94;4993731;28;20961;-74
2022/03/07 00:50:49;;;;;;;15.07;10.03;;;;;;;-3.96;100.00;96987.66;5009904;28;20460;-74
2022/03/07 00:53:20;;;;;;;7.53;6.83;;;;;;;-3.94;100.00;96983.84;4993378;28;20464;-74
2022/03/07 00:55:47;;;;;;;11.03;6.57;;;;;;;-3.95;100.00;96991.81;4980712;28;20448;-74
2022/03/07 00:58:14;;;;;;;6.90;6.27;;;;;;;-4.37;100.00;96941.88;4992858;28;20448;-75
2022/03/07 01:00:41;;;;;;;9.07;7.03;;;;;;;-4.14;100.00;96961.84;5008858;28;20455;-74
2022/03/07 01:03:10;;;;;;;14.23;7.83;;;;;;;-3.95;100.00;96999.56;4994358;28;20436;-75
2022/03/07 01:05:40;;;;;;;10.33;8.43;;;;;;;-3.95;100.00;96987.44;5008779;28;20806;-74
2022/03/07 01:08:08;;;;;;;9.23;7.13;;;;;;;-3.96;100.00;96991.03;4992589;28;20534;-74
2022/03/07 01:10:35;;;;;;;11.03;8.47;;;;;;;-4.00;100.00;96989.13;5008675;28;20487;-74
2022/03/07 01:13:02;;;;;;;11.63;7.40;;;;;;;-4.04;100.00;96995.69;5008608;28;20477;-74
2022/03/07 01:15:29;;;;;;;13.97;7.73;;;;;;;-4.41;100.00;96953.63;4993736;28;20487;-74
2022/03/07 01:17:59;;;;;;;12.97;9.00;;;;;;;-4.26;100.00;96975.50;4993158;28;20432;-75
2022/03/07 01:20:27;;;;;;;11.53;9.00;;;;;;;-4.17;100.00;96979.34;4992515;28;20845;-74
2022/03/07 01:22:55;;;;;;;9.30;8.40;;;;;;;-4.28;100.00;96963.78;4992311;28;20889;-75
2022/03/07 01:25:22;;;;;;;10.47;9.10;;;;;;;-4.25;100.00;96971.13;5008130;28;20817;-74
2022/03/07 01:27:49;;;;;;;9.70;8.70;;;;;;;-4.31;100.00;96951.34;5008250;28;20479;-74
2022/03/07 01:30:16;;;;;;;10.77;8.23;;;;;;;-4.27;100.00;96931.84;4993661;28;20431;-74
2022/03/07 01:32:43;;;;;;;8.67;7.77;;;;;;;-4.22;100.00;96957.78;4992143;28;20460;-74
2022/03/07 01:35:10;;;;;;;8.90;7.20;;;;;;;-4.25;100.00;96959.00;4989447;28;20486;-74
2022/03/07 01:37:37;;;;;;;9.77;7.53;;;;;;;-4.28;100.00;96974.91;4999983;28;20499;-74
2022/03/07 01:40:04;;;;;;;7.07;6.20;;;;;;;-4.20;100.00;96955.78;4994438;28;20472;-74
2022/03/07 01:42:31;;;;;;;12.00;10.90;;;;;;;-4.25;100.00;96948.69;5007582;28;20467;-74
2022/03/07 01:45:18;;;;;;;13.53;11.03;;;;;;;-4.62;100.00;96898.09;5007534;28;20542;-74
2022/03/07 01:47:46;;;;;;;11.57;8.03;;;;;;;-4.21;100.00;96960.16;4991336;28;20452;-74
2022/03/07 01:50:16;;;;;;;9.43;8.27;;;;;;;-4.17;100.00;96939.84;4998895;28;20441;-74
2022/03/07 01:52:45;;;;;;;11.90;9.47;;;;;;;-4.08;100.00;96958.41;4987689;28;20449;-74
2022/03/07 01:55:14;;;;;;;9.73;8.70;;;;;;;-4.27;100.00;96945.53;4991061;28;20469;-74
2022/03/07 01:57:50;;;;;;;10.80;9.30;;;;;;;-4.25;100.00;96948.69;4991030;28;20432;-74
2022/03/07 02:00:23;;;;;;;12.37;10.90;;;;;;;-4.43;100.00;96935.78;4991132;28;20463;-74
2022/03/07 02:02:50;;;;;;;13.67;12.43;;;;;;;-4.82;100.00;96881.03;4992886;28;20542;-75
2022/03/07 02:05:25;;;;;;;9.73;8.63;;;;;;;-4.39;100.00;96954.22;4995039;28;20447;-74
2022/03/07 02:07:58;;;;;;;12.23;9.47;;;;;;;-4.44;100.00;96952.25;5011364;28;20440;-74
2022/03/07 02:10:27;;;;;;;9.60;7.57;;;;;;;-4.34;100.00;96955.13;4996263;28;20428;-74
2022/03/07 02:12:55;;;;;;;12.43;10.00;;;;;;;-4.58;100.00;96932.78;5002759;28;20452;-74
2022/03/07 02:15:24;;;;;;;12.90;8.97;;;;;;;-4.80;100.00;96912.56;4990958;28;20880;-75
2022/03/07 02:17:53;;;;;;;9.33;8.20;;;;;;;-4.96;100.00;96926.00;4994883;28;20536;-74
2022/03/07 02:20:20;;;;;;;11.70;8.67;;;;;;;-5.07;100.00;96913.84;4983186;28;20456;-74
2022/03/07 02:22:46;;;;;;;9.60;8.10;;;;;;;-4.92;100.00;96910.91;4987570;28;20431;-74
2022/03/07 02:25:13;;;;;;;9.63;8.70;;;;;;;-4.54;100.00;96950.22;5010830;28;20460;-74
2022/03/07 02:27:40;;;;;;;9.40;8.50;;;;;;;-4.85;100.00;96924.50;5011051;28;20444;-74
2022/03/07 02:30:08;;;;;;;9.33;7.63;;;;;;;-5.01;100.00;96935.38;5010793;28;20443;-74
2022/03/07 02:32:40;;;;;;;9.00;7.67;;;;;;;-5.00;100.00;96940.31;5010666;28;20456;-74
2022/03/07 02:35:10;;;;;;;11.37;9.07;;;;;;;-5.14;100.00;96929.34;5010848;28;20464;-78
2022/03/07 02:37:41;;;;;;;7.17;5.37;;;;;;;-4.93;100.00;96932.53;4994764;28;20436;-75
2022/03/07 02:40:12;;;;;;;10.07;7.17;;;;;;;-5.01;100.00;96936.16;4997815;28;20507;-74
2022/03/07 02:42:58;;;;;;;10.33;8.53;;;;;;;-5.13;100.00;96914.66;4994194;28;20440;-74
2022/03/07 02:45:25;;;;;;;10.67;6.97;;;;;;;-5.08;100.00;96945.75;5010626;28;20952;-74
2022/03/07 02:47:52;;;;;;;9.17;7.50;;;;;;;-5.00;100.00;96960.94;4995441;28;20429;-74
2022/03/07 02:50:19;;;;;;;11.77;9.37;;;;;;;-5.09;100.00;96936.44;5010454;28;20829;-74
2022/03/07 02:52:45;;;;;;;10.30;8.73;;;;;;;-5.03;100.00;96958.81;4994196;28;20428;-74
2022/03/07 02:55:12;;;;;;;15.17;10.80;;;;;;;-5.10;100.00;96943.38;4994043;28;20492;-74
2022/03/07 02:57:39;;;;;;;16.10;11.60;;;;;;;-5.17;100.00;96934.94;4993733;28;20983;-74
2022/03/07 03:00:06;;;;;;;13.27;10.03;;;;;;;-5.06;100.00;96962.59;4993961;28;20437;-75
2022/03/07 03:02:33;;;;;;;13.77;10.70;;;;;;;-4.97;100.00;96957.94;4995743;28;20755;-74
2022/03/07 03:04:59;;;;;;;12.43;8.57;;;;;;;-4.85;100.00;96963.97;5010705;28;20456;-74
2022/03/07 03:07:26;;;;;;;10.20;7.93;;;;;;;-4.86;100.00;96961.63;5010526;28;20436;-74
2022/03/07 03:09:53;;;;;;;17.77;12.20;;;;;;;-5.41;100.00;96930.56;4995575;28;20431;-74
2022/03/07 03:12:24;;;;;;;12.57;10.20;;;;;;;-5.37;100.00;96924.75;4994067;28;20456;-74
2022/03/07 03:14:51;;;;;;;9.50;7.97;;;;;;;-5.23;100.00;96940.13;4992559;28;20461;-73
2022/03/07 03:17:17;;;;;;;9.90;8.67;;;;;;;-4.88;100.00;96969.56;4995057;28;20460;-73
2022/03/07 03:19:44;;;;;;;9.83;8.90;;;;;;;-5.08;100.00;96917.38;5009839;28;20444;-73
2022/03/07 03:22:11;;;;;;;20.60;10.43;;;;;;;-5.07;100.00;96929.31;4993546;28;20506;-74
2022/03/07 03:24:37;;;;;;;14.57;9.87;;;;;;;-4.82;100.00;96957.59;5009838;28;20460;-74
2022/03/07 03:27:05;;;;;;;11.93;9.07;;;;;;;-4.73;100.00;96961.50;4993438;28;20949;-74
2022/03/07 03:29:32;;;;;;;13.50;10.17;;;;;;;-4.55;100.00;96966.66;5009689;28;20810;-74
2022/03/07 03:31:58;;;;;;;14.90;10.17;;;;;;;-4.59;100.00;96968.09;4987635;28;20465;-74
2022/03/07 03:34:25;;;;;;;11.17;10.03;;;;;;;-4.74;100.00;96934.13;4986624;28;20464;-73
2022/03/07 03:36:52;;;;;;;13.03;11.40;;;;;;;-4.58;100.00;96963.72;4994777;28;20532;-73
2022/03/07 03:39:18;;;;;;;14.33;10.30;;;;;;;-4.75;100.00;96945.44;4994697;28;20427;-73
2022/03/07 03:41:45;;;;;;;14.50;9.97;;;;;;;-4.69;100.00;96970.38;4993208;28;20469;-73
2022/03/07 03:44:12;;;;;;;16.03;12.03;;;;;;;-4.57;100.00;96975.63;5009276;28;20500;-73
2022/03/07 03:46:39;;;;;;;13.93;11.33;;;;;;;-4.52;100.00;96961.09;4993388;28;20924;-73
2022/03/07 03:49:06;;;;;;;11.43;8.77;;;;;;;-4.65;100.00;96930.28;4994474;28;20483;-74
2022/03/07 03:51:34;;;;;;;14.03;10.03;;;;;;;-4.44;100.00;96972.91;5009404;28;20964;-74
2022/03/07 03:54:01;;;;;;;14.30;11.27;;;;;;;-4.33;100.00;96972.19;5009172;28;20471;-74
2022/03/07 03:56:27;;;;;;;12.60;11.30;;;;;;;-4.78;100.00;96926.03;5009181;28;20799;-74
2022/03/07 03:58:54;;;;;;;12.37;9.10;;;;;;;-4.45;100.00;96976.50;4992879;28;20470;-74
2022/03/07 04:01:21;;;;;;;12.10;10.83;;;;;;;-4.80;100.00;96945.31;5001078;28;20473;-74
2022/03/07 04:03:48;;;;;;;11.23;10.10;;;;;;;-4.83;100.00;96938.78;5004093;28;20877;-74
2022/03/07 04:06:14;;;;;;;13.93;9.83;;;;;;;-4.93;100.00;96933.34;4992885;28;20444;-74
2022/03/07 04:08:43;;;;;;;12.90;10.03;;;;;;;-4.59;100.00;96969.88;5008883;28;20479;-73
2022/03/07 04:11:13;;;;;;;12.30;11.10;;;;;;;-4.57;100.00;96976.41;4994024;28;20413;-73
2022/03/07 04:13:40;;;;;;;17.90;12.07;;;;;;;-4.51;100.00;96970.41;5008836;28;20488;-73
2022/03/07 04:16:07;;;;;;;15.90;14.20;;;;;;;-4.38;100.00;96973.84;4992680;28;20491;-73
2022/03/07 04:18:34;;;;;;;15.83;9.53;;;;;;;-4.44;100.00;96982.44;4993842;28;20551;-73
2022/03/07 04:21:00;;;;;;;14.30;10.47;;;;;;;-4.47;100.00;96973.34;5008747;28;20507;-73
2022/03/07 04:23:27;;;;;;;14.90;11.07;;;;;;;-4.63;100.00;96946.31;5008756;28;20467;-73
2022/03/07 04:25:54;;;;;;;14.37;12.80;;;;;;;-4.31;100.00;96982.31;5008315;28;20467;-74
2022/03/07 04:28:20;;;;;;;16.20;10.67;;;;;;;-4.69;100.00;96942.00;5008514;28;20461;-74
2022/03/07 04:30:47;;;;;;;29.93;20.57;;;;;;;-4.74;100.00;96944.44;5008700;28;20516;-73
2022/03/07 04:33:14;;;;;;;21.83;16.23;;;;;;;-4.61;100.00;96980.44;4976055;28;22160;-73
2022/03/07 04:35:40;;;;;;;19.70;14.20;;;;;;;-4.78;100.00;96962.16;5008480;28;20443;-73
2022/03/07 04:38:08;;;;;;;15.80;12.30;;;;;;;-4.63;100.00;96979.06;4992190;28;20858;-73
2022/03/07 04:40:35;;;;;;;14.20;10.30;;;;;;;-4.88;100.00;96953.31;4993371;28;20460;-73
2022/03/07 04:43:04;;;;;;;13.77;9.40;;;;;;;-4.68;100.00;96977.09;5008333;28;20507;-73
2022/03/07 04:45:30;;;;;;;14.37;12.13;;;;;;;-4.68;100.00;96990.00;5008408;28;20460;-73
2022/03/07 04:47:57;;;;;;;19.10;11.50;;;;;;;-4.68;100.00;96999.53;4992238;28;20894;-73
2022/03/07 04:50:23;;;;;;;12.80;11.50;;;;;;;-4.53;100.00;97002.59;4992022;28;20527;-73
2022/03/07 04:52:50;;;;;;;12.20;10.70;;;;;;;-4.66;100.00;96989.81;4991843;28;20433;-73
2022/03/07 04:55:17;;;;;;;14.17;9.80;;;;;;;-4.68;100.00;96991.78;5008149;28;20494;-73
2022/03/07 04:57:43;;;;;;;11.93;10.37;;;;;;;-4.74;100.00;96975.41;5008018;28;20468;-73
2022/03/07 05:00:12;;;;;;;13.63;10.80;;;;;;;-4.48;100.00;97005.31;4975811;28;20440;-73
2022/03/07 05:02:39;;;;;;;15.83;11.57;;;;;;;-4.40;100.00;96997.31;4977463;28;20551;-73
2022/03/07 05:05:06;;;;;;;14.07;11.30;;;;;;;-4.58;100.00;96987.72;5008068;28;20464;-73
2022/03/07 05:07:32;;;;;;;11.50;10.30;;;;;;;-4.56;100.00;97014.09;5007868;28;20432;-73
2022/03/07 05:09:59;;;;;;;14.40;11.03;;;;;;;-4.66;100.00;96993.19;4991774;28;20478;-73
2022/03/07 05:12:26;;;;;;;15.90;10.30;;;;;;;-4.57;100.00;96997.03;5008028;28;20447;-73
2022/03/07 05:14:53;;;;;;;12.47;9.60;;;;;;;-4.82;100.00;96983.41;5007842;28;20490;-73
2022/03/07 05:17:19;;;;;;;15.90;10.00;;;;;;;-4.61;100.00;97010.59;4991537;28;20464;-74
2022/03/07 05:19:47;;;;;;;16.73;9.97;;;;;;;-4.82;100.00;96988.56;5007896;28;21043;-74
2022/03/07 05:22:14;;;;;;;14.60;11.53;;;;;;;-4.62;100.00;96996.13;4994591;28;20474;-74
2022/03/07 05:24:41;;;;;;;22.97;10.73;;;;;;;-4.65;100.00;96999.91;5007673;28;20557;-74
2022/03/07 05:27:08;;;;;;;12.33;10.53;;;;;;;-4.57;100.00;97004.78;5007718;28;20532;-74
2022/03/07 05:29:36;;;;;;;15.13;10.60;;;;;;;-4.50;100.00;96986.69;4992635;28;20427;-73
2022/03/07 05:32:03;;;;;;;13.90;11.93;;;;;;;-4.65;100.00;96996.56;4991395;28;20427;-73
2022/03/07 05:34:30;;;;;;;21.10;12.73;;;;;;;-4.49;100.00;97003.72;4992652;28;20467;-73
2022/03/07 05:36:56;;;;;;;14.83;11.57;;;;;;;-4.64;100.00;96975.69;5007023;28;20464;-73
2022/03/07 05:39:23;;;;;;;14.70;12.57;;;;;;;-4.44;100.00;97009.03;4975205;28;20444;-73
2022/03/07 05:41:50;;;;;;;14.03;10.83;;;;;;;-4.47;100.00;97007.66;4991303;28;20484;-73
2022/03/07 05:44:16;;;;;;;19.80;16.07;;;;;;;-4.68;100.00;96977.09;5007333;28;20908;-73
2022/03/07 05:46:43;;;;;;;15.17;11.67;;;;;;;-4.69;100.00;96982.47;4992391;28;20526;-73
2022/03/07 05:49:10;;;;;;;14.30;11.90;;;;;;;-4.63;100.00;97012.59;4992419;28;20881;-73
2022/03/07 05:51:37;;;;;;;14.23;11.33;;;;;;;-4.84;100.00;96981.03;5007667;28;20524;-73
2022/03/07 05:54:04;;;;;;;13.27;10.90;;;;;;;-4.98;100.00;96989.88;4992475;28;20480;-73
2022/03/07 05:56:30;;;;;;;16.97;12.47;;;;;;;-4.82;100.00;97024.66;4975152;28;20437;-73
2022/03/07 05:58:57;;;;;;;17.37;12.37;;;;;;;-5.07;100.00;96986.78;5007562;28;20852;-73
2022/03/07 06:01:24;;;;;;;14.10;12.63;;;;;;;-5.12;100.00;96983.25;4991164;28;20507;-73
2022/03/07 06:03:50;;;;;;;17.33;10.90;;;;;;;-4.90;100.00;97015.41;4992359;28;20510;-73
2022/03/07 06:06:17;;;;;;;21.20;13.57;;;;;;;-5.04;100.00;96979.63;5007499;28;21004;-73
2022/03/07 06:08:44;;;;;;;19.80;13.20;;;;;;;-4.96;100.00;97008.50;5007529;28;20476;-73
2022/03/07 06:11:10;;;;;;;14.67;13.03;;;;;;;-5.12;100.00;96967.78;5007387;28;20436;-73
2022/03/07 06:13:37;;;;;;;17.03;12.70;;;;;;;-4.61;100.00;97026.06;4990979;28;20464;-73
2022/03/07 06:16:04;;;;;;;17.50;13.50;;;;;;;-4.66;100.00;97023.34;5007488;28;20434;-73
2022/03/07 06:18:31;;;;;;;16.67;13.93;;;;;;;-4.73;100.00;97007.13;4991135;28;20531;-73
2022/03/07 06:20:58;;;;;;;24.60;19.53;;;;;;;-4.43;100.00;97033.03;5007302;28;20443;-73
2022/03/07 06:23:25;;;;;;;23.00;17.20;;;;;;;-4.48;100.00;97031.09;4991040;28;20457;-73
2022/03/07 06:25:51;;;;;;;19.13;14.53;;;;;;;-4.43;100.00;97033.03;5007315;28;20464;-74
2022/03/07 06:28:18;;;;;;;24.93;18.23;;;;;;;-4.44;100.00;97027.09;4991162;28;20574;-74
2022/03/07 06:30:48;;;;;;;23.50;15.00;;;;;;;-4.41;100.00;97028.44;4990958;28;20445;-74
2022/03/07 06:33:16;;;;;;;23.43;15.60;;;;;;;-4.26;100.00;97044.41;4991965;28;20913;-74
2022/03/07 06:35:42;;;;;;;18.27;14.27;;;;;;;-4.21;100.00;97041.97;4992180;28;20483;-74
2022/03/07 06:38:09;;;;;;;19.60;12.60;;;;;;;-4.27;100.00;97038.47;4992082;28;20496;-73
2022/03/07 06:40:36;;;;;;;17.40;13.53;;;;;;;-4.28;100.00;97038.66;5007168;28;20511;-73
2022/03/07 06:43:03;;;;;;;16.93;11.63;;;;;;;-4.47;100.00;97007.66;4991019;28;20500;-73
2022/03/07 06:45:30;;;;;;;14.87;12.13;;;;;;;-4.28;100.00;97042.00;4974655;28;20531;-73
2022/03/07 06:47:57;;;;;;;14.80;12.00;;;;;;;-4.30;100.00;97020.78;4990784;28;20436;-74
2022/03/07 06:50:29;;;;;;;16.30;13.90;;;;;;;-4.26;100.00;97068.41;4994240;28;20809;-73
2022/03/07 06:52:56;;;;;;;14.03;12.37;;;;;;;-4.28;100.00;97051.56;4995372;28;20486;-73
2022/03/07 06:55:23;;;;;;;19.70;16.40;;;;;;;-4.09;100.00;97058.31;5010517;28;20467;-73
2022/03/07 06:57:50;;;;;;;18.27;13.30;;;;;;;-4.16;100.00;97060.16;4994024;28;20440;-74
2022/03/07 07:00:17;;;;;;;20.10;15.60;;;;;;;-4.06;100.00;97064.84;4995460;28;20432;-74
2022/03/07 07:02:45;;;;;;;15.20;13.03;;;;;;;-4.38;100.00;97040.94;4993849;28;20495;-74
2022/03/07 07:05:14;;;;;;;13.63;12.23;;;;;;;-4.13;100.00;97064.13;5010267;28;20893;-74
2022/03/07 07:07:45;;;;;;;19.40;14.00;;;;;;;-4.29;100.00;97048.19;5010254;28;20456;-74
2022/03/07 07:10:14;;;;;;;14.50;12.40;;;;;;;-4.07;100.00;97061.47;4994086;28;20429;-74
2022/03/07 07:12:41;;;;;;;13.90;11.53;;;;;;;-4.13;100.00;97052.03;4993733;28;20913;-73
2022/03/07 07:15:09;;;;;;;15.97;12.03;;;;;;;-4.28;100.00;97048.97;4993710;28;20518;-73
2022/03/07 07:17:35;;;;;;;15.13;11.63;;;;;;;-4.24;100.00;97045.75;4994951;28;20429;-74
2022/03/07 07:20:04;;;;;;;13.20;11.03;;;;;;;-4.16;100.00;97065.34;5009969;28;20531;-74
2022/03/07 07:22:31;;;;;;;11.90;10.80;;;;;;;-4.19;100.00;97063.19;4993639;28;20500;-74
2022/03/07 07:24:59;;;;;;;17.43;12.03;;;;;;;-4.39;100.00;97067.75;4994802;28;20452;-74
2022/03/07 07:27:26;;;;;;;15.40;12.67;;;;;;;-4.35;100.00;97061.16;5009984;28;20473;-73
2022/03/07 07:29:53;;;;;;;13.33;11.40;;;;;;;-4.26;100.00;97065.06;5009980;28;20491;-73
2022/03/07 07:32:21;;;;;;;13.43;10.40;;;;;;;-3.92;100.00;97095.47;5010024;28;20448;-73
2022/03/07 07:34:48;;;;;;;14.60;11.43;;;;;;;-3.72;100.00;97092.69;4977493;28;20498;-74
2022/03/07 07:37:15;;;;;;;11.17;9.83;;;;;;;-3.41;100.00;97096.09;5010061;28;20855;-74
2022/03/07 07:39:45;;;;;;;13.73;12.33;;;;;;;-3.63;100.00;97062.94;4996182;28;20436;-74
2022/03/07 07:42:12;;;;;;;12.30;10.47;;;;;;;-3.16;100.00;97091.59;4977630;28;20502;-74
2022/03/07 07:44:39;;;;;;;12.40;10.77;;;;;;;-3.28;100.00;97057.94;4993569;28;20962;-74
2022/03/07 07:47:09;;;;;;;13.00;11.47;;;;;;;-3.31;100.00;97098.97;4993634;28;20443;-73
2022/03/07 07:49:37;;;;;;;16.53;11.37;;;;;;;-3.32;100.00;97087.81;4994613;28;20443;-73
2022/03/07 07:52:04;;;;;;;16.77;11.67;;;;;;;-3.06;100.00;97111.75;4993443;28;20491;-73
2022/03/07 07:54:31;;;;;;;12.60;11.40;;;;;;;-3.60;100.00;97088.38;4993959;28;20472;-73
2022/03/07 07:56:58;;;;;;;12.97;11.10;;;;;;;-3.72;100.00;97099.66;5010015;28;20871;-73
2022/03/07 07:59:25;;;;;;;13.33;11.93;;;;;;;-3.51;100.00;97126.81;5009045;28;20532;-72
2022/03/07 08:01:51;;;;;;;14.73;11.10;;;;;;;-3.57;100.00;97116.34;4992724;28;20505;-73
2022/03/07 08:04:18;;;;;;;16.23;11.77;;;;;;;-3.73;100.00;97093.69;5009282;28;20555;-73
2022/03/07 08:06:45;;;;;;;12.43;11.13;;;;;;;-3.59;100.00;97123.53;5009663;28;20476;-73
2022/03/07 08:09:11;;;;;;;14.00;12.60;;;;;;;-3.70;100.00;97106.19;4993112;28;20448;-73
2022/03/07 08:11:38;;;;;;;18.43;13.43;;;;;;;-3.72;100.00;97113.34;4992929;28;20432;-73
2022/03/07 08:14:04;;;;;;;12.50;11.07;;;;;;;-3.51;100.00;97144.91;4992646;28;20514;-73
2022/03/07 08:16:31;;;;;;;18.30;14.50;;;;;;;-3.51;100.00;97142.31;4994130;28;20475;-73
2022/03/07 08:18:58;;;;;;;14.27;10.53;;;;;;;-3.74;100.00;97114.56;4976822;28;20441;-73
2022/03/07 08:21:25;;;;;;;10.20;9.10;;;;;;;-3.78;100.00;97113.41;4976739;28;20462;-73
2022/03/07 08:23:54;;;;;;;14.17;11.53;;;;;;;-3.74;100.00;97111.97;4976488;28;20460;-73
2022/03/07 08:26:22;;;;;;;14.33;11.07;;;;;;;-3.52;100.00;97145.91;5008976;28;20944;-73
2022/03/07 08:28:49;;;;;;;14.23;10.17;;;;;;;-3.74;100.00;97136.03;4981081;28;20435;-73
2022/03/07 08:31:15;;;;;;;15.20;10.50;;;;;;;-3.33;100.00;97142.34;5008919;28;20479;-73
2022/03/07 08:33:42;;;;;;;13.60;10.70;;;;;;;-3.07;100.00;97123.09;4992694;28;20472;-73
2022/03/07 08:36:09;;;;;;;15.33;10.70;;;;;;;-2.90;100.00;97121.47;4994294;28;20464;-73
2022/03/07 08:38:35;;;;;;;13.50;10.20;;;;;;;-2.75;100.00;97150.31;4994197;28;20432;-73
2022/03/07 08:41:02;;;;;;;13.07;10.70;;;;;;;-2.70;100.00;97153.00;5009260;28;20520;-73
2022/03/07 08:43:29;;;;;;;15.80;12.10;;;;;;;-2.72;100.00;97142.09;5009043;28;20535;-73
2022/03/07 08:45:55;;;;;;;12.30;11.00;;;;;;;-2.59;100.00;97123.00;5008819;28;20483;-73
2022/03/07 08:48:24;;;;;;;15.17;11.63;;;;;;;-2.57;99.25;97128.75;4992458;28;20478;-73
2022/03/07 08:50:51;;;;;;;11.83;9.43;;;;;;;-2.63;97.13;97134.03;5008953;28;20461;-73
2022/03/07 08:53:17;;;;;;;15.57;12.90;;;;;;;-2.40;95.41;97158.16;4992602;28;20502;-73
2022/03/07 08:55:44;;;;;;;13.63;10.97;;;;;;;-2.31;90.81;97122.38;4992380;28;20446;-73
2022/03/07 08:58:23;;;;;;;12.73;10.13;;;;;;;-1.93;88.36;97152.22;5009101;28;20446;-73
2022/03/07 09:00:50;;;;;;;17.17;13.63;;;;;;;-2.04;89.20;97145.25;5008846;28;20523;-74
2022/03/07 09:03:17;;;;;;;11.73;10.60;;;;;;;-2.25;89.15;97118.09;4992533;28;20859;-73
2022/03/07 09:05:43;;;;;;;13.27;11.27;;;;;;;-2.25;87.46;97126.66;4993795;28;20533;-74
2022/03/07 09:08:10;;;;;;;10.90;9.80;;;;;;;-2.34;87.22;97103.91;5009021;28;20879;-73
2022/03/07 09:10:37;;;;;;;13.00;11.60;;;;;;;-2.41;87.19;97104.78;4993849;28;20523;-73
2022/03/07 09:13:04;;;;;;;14.50;11.00;;;;;;;-2.04;87.35;97142.66;5010408;28;20432;-74
2022/03/07 09:15:30;;;;;;;11.80;10.70;;;;;;;-1.93;87.13;97124.50;4994399;28;20449;-73
2022/03/07 09:17:57;;;;;;;14.27;10.20;;;;;;;-1.73;87.36;97131.94;4994495;28;20511;-74
2022/03/07 09:20:24;;;;;;;11.77;10.57;;;;;;;-1.70;85.11;97152.22;5009499;28;20478;-74
2022/03/07 09:22:51;;;;;;;11.60;10.40;;;;;;;-1.75;84.31;97126.19;4991855;28;20453;-73
2022/03/07 09:25:18;;;;;;;11.83;10.30;;;;;;;-1.29;85.29;97153.03;4991861;28;20456;-73
2022/03/07 09:27:45;;;;;;;11.67;10.47;;;;;;;-1.57;84.24;97115.69;5008507;28;20504;-74
2022/03/07 09:30:13;;;;;;;12.90;10.27;;;;;;;-1.75;84.20;97128.75;4976224;28;20444;-74
2022/03/07 09:32:40;;;;;;;10.30;9.07;;;;;;;-1.68;83.27;97124.25;4993080;28;20548;-73
2022/03/07 09:35:09;;;;;;;11.07;9.40;;;;;;;-1.40;83.49;97146.84;4992174;28;20460;-74
2022/03/07 09:37:35;;;;;;;10.93;9.93;;;;;;;-1.64;85.10;97153.09;4993043;28;20429;-73
2022/03/07 09:40:04;;;;;;;12.83;9.17;;;;;;;-1.64;83.95;97153.09;5007779;28;20457;-73
2022/03/07 09:42:31;;;;;;;16.80;13.27;;;;;;;-1.48;84.75;97148.00;5007685;28;20600;-73
2022/03/07 09:44:58;;;;;;;10.90;8.40;;;;;;;-1.39;82.68;97145.06;4991420;28;20469;-73
2022/03/07 09:47:26;;;;;;;10.10;9.10;;;;;;;-1.20;82.04;97142.09;4991474;28;20447;-73
2022/03/07 09:49:53;;;;;;;10.40;9.27;;;;;;;-1.04;81.83;97139.78;5007797;28;20544;-73
2022/03/07 09:52:20;;;;;;;13.30;9.23;;;;;;;-1.50;80.77;97123.31;5008345;28;20440;-74
2022/03/07 09:54:47;;;;;;;11.20;10.00;;;;;;;-1.43;82.56;97159.50;4993183;28;20984;-73
2022/03/07 09:57:13;;;;;;;10.20;9.20;;;;;;;-1.72;81.52;97119.78;5008029;28;20445;-73
2022/03/07 09:59:40;;;;;;;10.97;8.87;;;;;;;-1.39;81.25;97148.44;4991871;28;20527;-74
2022/03/07 10:02:14;;;;;;;11.03;9.07;;;;;;;-1.38;81.26;97154.41;5007975;28;20483;-73
2022/03/07 10:04:44;;;;;;;12.40;9.30;;;;;;;-1.16;82.31;97159.78;5007877;28;20499;-73
2022/03/07 10:07:12;;;;;;;12.37;10.10;;;;;;;-1.26;81.03;97137.00;5007984;28;21075;-73
2022/03/07 10:09:39;;;;;;;11.80;8.40;;;;;;;-1.04;80.15;97152.75;5007738;28;20445;-73
2022/03/07 10:12:06;;;;;;;10.60;8.80;;;;;;;-0.88;79.79;97170.16;4991505;28;20476;-73
2022/03/07 10:14:42;;;;;;;9.77;8.80;;;;;;;-0.95;79.61;97170.28;4991795;28;20444;-73
2022/03/07 10:17:31;;;;;;;9.17;7.93;;;;;;;-1.10;78.40;97159.63;4991672;28;20444;-73
2022/03/07 10:20:03;;;;;;;9.80;8.80;;;;;;;-0.82;78.53;97163.25;5008084;28;20445;-73
2022/03/07 10:22:44;;;;;;;10.90;9.23;;;;;;;-1.00;77.83;97143.47;4991999;28;20483;-73
2022/03/07 10:25:11;;;;;;;10.13;8.60;;;;;;;-0.50;77.64;97171.34;5012347;28;20464;-73
2022/03/07 10:27:46;;;;;;;10.90;9.80;;;;;;;-0.82;77.80;97166.63;4996412;28;20951;-73
2022/03/07 10:30:15;;;;;;;10.57;8.47;;;;;;;-0.37;78.14;97171.06;5012462;28;20943;-73
2022/03/07 10:32:50;;;;;;;15.20;9.70;;;;;;;-0.40;75.59;97172.31;5012281;28;20441;-73
2022/03/07 10:35:23;;;;;;;10.23;9.00;;;;;;;-0.28;75.78;97156.63;4996893;28;20449;-73
2022/03/07 10:37:54;;;;;;;9.27;8.37;;;;;;;-0.15;77.10;97158.91;4996796;28;20449;-73
2022/03/07 10:40:22;;;;;;;17.07;13.43;;;;;;;-0.17;76.36;97165.38;4997851;28;20468;-73
2022/03/07 10:42:52;;;;;;;10.83;8.73;;;;;;;-0.33;76.17;97169.56;5011966;28;20467;-73
2022/03/07 10:45:18;;;;;;;11.63;8.67;;;;;;;-0.73;74.99;97141.09;5011717;28;20465;-73
2022/03/07 10:47:54;;;;;;;11.00;8.00;;;;;;;-0.54;76.05;97175.41;4995476;28;20507;-73
2022/03/07 10:50:23;;;;;;;10.27;7.40;;;;;;;-0.50;75.97;97172.13;5012079;28;20435;-73
2022/03/07 10:52:52;;;;;;;8.10;7.30;;;;;;;-0.46;73.91;97156.88;4993967;28;20536;-73
2022/03/07 10:55:25;;;;;;;12.53;8.10;;;;;;;-0.49;75.44;97149.56;5003962;28;20776;-73
2022/03/07 10:57:52;;;;;;;11.23;7.20;;;;;;;-0.74;74.92;97129.13;4996843;28;20433;-73
2022/03/07 11:00:20;;;;;;;9.10;8.20;;;;;;;-0.61;75.23;97134.81;5011516;28;20472;-73
2022/03/07 11:02:48;;;;;;;8.57;7.40;;;;;;;-0.23;73.84;97151.53;5011255;28;20504;-73
2022/03/07 11:05:16;;;;;;;7.70;6.90;;;;;;;-0.10;74.83;97111.44;5011175;28;20830;-72
2022/03/07 11:07:45;;;;;;;8.60;7.80;;;;;;;-0.27;73.01;97116.63;5011451;28;21048;-73
2022/03/07 11:10:14;;;;;;;8.13;7.33;;;;;;;-0.01;72.31;97149.78;5011157;28;20445;-73
2022/03/07 11:12:42;;;;;;;8.13;7.40;;;;;;;0.05;73.81;97147.25;4994799;28;20438;-73
2022/03/07 11:15:10;;;;;;;8.77;7.87;;;;;;;0.01;73.07;97127.97;4994573;28;20464;-73
2022/03/07 11:17:39;;;;;;;10.27;9.30;;;;;;;-0.12;71.77;97139.50;4996198;28;20435;-73
2022/03/07 11:20:08;;;;;;;10.53;7.67;;;;;;;-0.52;72.66;97122.25;4996048;28;20466;-73